Terminal Aerodrome Forecast
Issued by NWS

Home | Current Version | Previous Version | Text Only | Print | Product List | Glossary On
Versions: 1 2 3 4 5 6 7 8 9 10 11 12 13 14 15
000
FTUS45 KMSO 241720
TAFSMN
TAF
KSMN 241720Z 2418/2518 VRB04KT P6SM BKN060
     FM241900 01008KT P6SM VCSH BKN050
     FM242200 01010KT P6SM -SHRA BKN050
     FM250100 01006KT P6SM BKN090
      AMD LTD TO CLD VIS AND WIND=

USA.gov is the U.S. government's official web portal to all federal, state and local government web resources and services.